createdAt,value
2022-09-09T00:00:13.619Z,8.34
2022-09-09T00:01:53.868Z,8.34
2022-09-09T00:03:13.222Z,8.45
2022-09-09T00:04:27.874Z,8.47
2022-09-09T00:05:54.930Z,8.54
2022-09-09T00:07:41.020Z,8.49
2022-09-09T00:09:19.206Z,8.49
2022-09-09T00:10:29.746Z,8.54
2022-09-09T00:11:57.980Z,8.55
2022-09-09T00:13:25.179Z,8.58
2022-09-09T00:14:43.365Z,8.56
2022-09-09T00:16:23.711Z,8.52
2022-09-09T00:18:20.674Z,8.55
2022-09-09T00:19:41.378Z,8.46
2022-09-09T00:21:14.583Z,8.50
2022-09-09T00:22:23.241Z,8.50
2022-09-09T00:23:42.729Z,8.56
2022-09-09T00:24:57.866Z,8.60
2022-09-09T00:26:15.105Z,8.65
2022-09-09T00:27:40.165Z,8.54
2022-09-09T00:28:55.530Z,8.58
2022-09-09T00:30:23.697Z,8.62
2022-09-09T00:31:33.519Z,8.64
2022-09-09T00:32:41.027Z,8.47
2022-09-09T00:33:44.468Z,8.51
2022-09-09T00:34:56.580Z,8.49
2022-09-09T00:36:02.146Z,8.55
2022-09-09T00:37:04.542Z,8.49
2022-09-09T00:38:16.870Z,8.59
2022-09-09T00:39:34.036Z,8.55
2022-09-09T00:40:52.098Z,8.54
2022-09-09T00:42:16.194Z,8.57
2022-09-09T00:43:31.359Z,8.64
2022-09-09T00:44:36.571Z,8.65
2022-09-09T00:46:03.012Z,8.71
2022-09-09T00:47:50.261Z,8.51
2022-09-09T00:48:57.490Z,8.55
2022-09-09T00:50:26.011Z,8.45
2022-09-09T00:51:36.076Z,8.58
2022-09-09T00:53:15.931Z,8.56
2022-09-09T00:54:36.873Z,8.60
2022-09-09T00:56:09.647Z,8.56
2022-09-09T00:57:12.582Z,8.57
2022-09-09T00:58:15.053Z,8.54
2022-09-09T00:59:48.137Z,8.53
2022-09-09T01:01:09.023Z,8.53
2022-09-09T01:02:29.319Z,8.50
2022-09-09T01:03:40.680Z,8.52
2022-09-09T01:04:45.493Z,8.55
2022-09-09T01:05:58.937Z,8.55
2022-09-09T01:07:17.566Z,8.59
2022-09-09T01:08:19.612Z,8.59
2022-09-09T01:09:43.806Z,8.58
2022-09-09T01:10:50.875Z,8.52
2022-09-09T01:12:13.838Z,8.57
2022-09-09T01:13:28.994Z,8.59
2022-09-09T01:14:37.505Z,8.50
2022-09-09T01:15:47.957Z,8.57
2022-09-09T01:16:56.726Z,8.49
2022-09-09T01:18:15.799Z,8.59
2022-09-09T01:19:42.360Z,8.59
2022-09-09T01:21:16.464Z,8.60
2022-09-09T01:22:38.069Z,8.65
2022-09-09T01:23:54.257Z,8.51
2022-09-09T01:25:44.823Z,8.54
2022-09-09T01:27:02.419Z,8.55
2022-09-09T01:28:12.622Z,8.47
2022-09-09T01:29:24.989Z,8.47
2022-09-09T01:30:29.009Z,8.54
2022-09-09T01:31:40.786Z,8.52
2022-09-09T01:32:49.827Z,8.54
2022-09-09T01:33:54.066Z,8.57
2022-09-09T01:35:03.234Z,8.66
2022-09-09T01:36:14.585Z,8.57
2022-09-09T01:37:22.763Z,8.57
2022-09-09T01:38:26.329Z,8.65
2022-09-09T01:39:33.310Z,8.57
2022-09-09T01:40:46.889Z,8.63
2022-09-09T01:41:56.938Z,8.68
2022-09-09T01:43:01.119Z,8.67
2022-09-09T01:44:04.081Z,8.59
2022-09-09T01:45:10.568Z,8.51
2022-09-09T01:46:16.881Z,8.56
2022-09-09T01:47:20.645Z,8.58
2022-09-09T01:48:51.231Z,8.60
2022-09-09T01:49:53.916Z,8.61
2022-09-09T01:51:00.325Z,8.68
2022-09-09T01:52:05.773Z,8.72
2022-09-09T01:53:15.860Z,8.74
2022-09-09T01:54:19.039Z,8.74
2022-09-09T01:55:29.854Z,8.75
2022-09-09T01:56:41.193Z,8.80
2022-09-09T01:57:58.552Z,8.70
2022-09-09T01:59:32.801Z,8.80
2022-09-09T02:00:38.843Z,8.77
2022-09-09T02:01:44.426Z,8.74
2022-09-09T02:03:07.826Z,8.82
2022-09-09T02:04:37.109Z,8.80
2022-09-09T02:06:02.479Z,8.81
2022-09-09T02:07:29.612Z,8.78
2022-09-09T02:08:50.245Z,8.77
2022-09-09T02:10:05.581Z,8.63
2022-09-09T02:11:14.023Z,8.65
2022-09-09T02:12:27.290Z,8.65
2022-09-09T02:13:38.101Z,8.59
2022-09-09T02:14:56.353Z,8.60
2022-09-09T02:16:09.646Z,8.57
2022-09-09T02:17:14.904Z,8.63
2022-09-09T02:19:08.149Z,8.59
2022-09-09T02:20:29.687Z,8.58
2022-09-09T02:21:36.300Z,8.60
2022-09-09T02:22:44.166Z,8.44
2022-09-09T02:23:51.579Z,8.50
2022-09-09T02:25:00.255Z,8.45
2022-09-09T02:26:08.959Z,8.41
2022-09-09T02:27:13.791Z,8.41
2022-09-09T02:28:18.620Z,8.32
2022-09-09T02:29:27.411Z,8.24
2022-09-09T02:30:33.385Z,8.29
2022-09-09T02:31:38.080Z,8.25
2022-09-09T02:32:48.420Z,8.19
2022-09-09T02:34:02.161Z,8.19
2022-09-09T02:35:12.055Z,8.16
2022-09-09T02:36:17.499Z,8.17
2022-09-09T02:37:23.700Z,8.13
2022-09-09T02:38:32.038Z,8.00
2022-09-09T02:39:44.846Z,8.02
2022-09-09T02:40:50.701Z,7.98
2022-09-09T02:41:53.851Z,7.97
2022-09-09T02:43:05.642Z,7.97
2022-09-09T02:44:18.054Z,8.05
2022-09-09T02:45:30.452Z,8.10
2022-09-09T02:47:03.130Z,8.06
2022-09-09T02:48:28.143Z,7.99
2022-09-09T02:50:07.947Z,7.95
2022-09-09T02:51:19.934Z,7.94
2022-09-09T02:52:35.653Z,7.92
2022-09-09T02:53:37.910Z,8.03
2022-09-09T02:54:41.613Z,8.07
2022-09-09T02:55:59.344Z,8.07
2022-09-09T02:57:17.488Z,8.19
2022-09-09T02:58:23.235Z,8.14
2022-09-09T02:59:33.348Z,8.23
2022-09-09T03:00:37.260Z,8.28
2022-09-09T03:01:41.275Z,8.24
2022-09-09T03:02:46.553Z,8.27
2022-09-09T03:03:49.415Z,8.32
2022-09-09T03:04:54.911Z,8.37
2022-09-09T03:05:58.180Z,8.40
2022-09-09T03:07:02.209Z,8.37
2022-09-09T03:08:06.645Z,8.41
2022-09-09T03:09:11.495Z,8.32
2022-09-09T03:10:15.604Z,8.27
2022-09-09T03:11:18.571Z,8.20
2022-09-09T03:12:21.656Z,8.24
2022-09-09T03:13:24.222Z,8.32
2022-09-09T03:14:28.048Z,8.38
2022-09-09T03:15:32.260Z,8.32
2022-09-09T03:16:35.636Z,8.36
2022-09-09T03:17:39.506Z,8.32
2022-09-09T03:18:44.862Z,8.32
2022-09-09T03:19:50.809Z,8.18
2022-09-09T03:20:56.180Z,8.23
2022-09-09T03:21:59.630Z,8.23
2022-09-09T03:23:03.541Z,8.16
2022-09-09T03:24:06.411Z,8.08
2022-09-09T03:25:09.479Z,8.00
2022-09-09T03:26:16.290Z,8.02
2022-09-09T03:27:21.615Z,8.08
2022-09-09T03:28:24.438Z,8.13
2022-09-09T03:29:26.902Z,8.27
2022-09-09T03:30:32.229Z,8.26
2022-09-09T03:32:59.239Z,8.27
2022-09-09T03:34:08.034Z,8.34
2022-09-09T03:35:12.597Z,8.38
2022-09-09T03:36:16.053Z,8.34
2022-09-09T03:37:18.947Z,8.32
2022-09-09T03:38:21.610Z,8.22
2022-09-09T03:39:27.434Z,8.25
2022-09-09T03:40:29.543Z,8.27
2022-09-09T03:41:32.202Z,8.23
2022-09-09T03:42:38.176Z,8.32
2022-09-09T03:43:43.126Z,8.29
2022-09-09T03:44:51.204Z,8.14
2022-09-09T03:45:58.161Z,8.06
2022-09-09T03:47:02.203Z,8.11
2022-09-09T03:48:05.318Z,8.16
2022-09-09T03:49:11.443Z,8.17
2022-09-09T03:50:17.387Z,8.00
2022-09-09T03:51:23.275Z,8.01
2022-09-09T03:52:28.109Z,7.99
2022-09-09T03:53:31.706Z,8.01
2022-09-09T03:54:34.122Z,7.98
2022-09-09T03:55:38.826Z,8.01
2022-09-09T03:56:42.806Z,8.02
2022-09-09T03:57:47.945Z,8.06
2022-09-09T03:58:50.817Z,8.03
2022-09-09T03:59:53.627Z,8.02
2022-09-09T04:00:57.669Z,8.09
2022-09-09T04:02:04.965Z,8.12
2022-09-09T04:03:07.129Z,8.39
2022-09-09T04:04:10.102Z,9.48
2022-09-09T04:05:13.218Z,10.62
2022-09-09T04:06:22.269Z,11.11
2022-09-09T04:07:24.695Z,12.00
2022-09-09T04:08:34.755Z,12.85
2022-09-09T04:09:36.963Z,13.18
2022-09-09T04:10:39.090Z,13.72
2022-09-09T04:11:41.416Z,14.66
2022-09-09T04:12:47.748Z,15.41
2022-09-09T04:13:51.650Z,15.52
2022-09-09T04:14:54.681Z,15.64
2022-09-09T04:15:59.863Z,15.58
2022-09-09T04:17:07.408Z,16.22
2022-09-09T04:18:15.076Z,16.47
2022-09-09T04:19:20.320Z,17.74
2022-09-09T04:20:23.321Z,17.68
2022-09-09T04:21:28.577Z,18.19
2022-09-09T04:22:31.966Z,17.57
2022-09-09T04:23:37.296Z,18.16
2022-09-09T04:24:40.480Z,18.42
2022-09-09T04:25:50.246Z,18.21
2022-09-09T04:26:52.410Z,19.47
2022-09-09T04:27:59.285Z,19.07
2022-09-09T04:29:04.781Z,20.11
2022-09-09T04:30:08.918Z,19.85
2022-09-09T04:31:19.158Z,19.92
2022-09-09T04:32:22.935Z,19.66
2022-09-09T04:33:27.784Z,20.48
2022-09-09T04:34:31.744Z,19.98
2022-09-09T04:35:35.509Z,19.55
2022-09-09T04:36:37.813Z,19.92
2022-09-09T04:37:41.895Z,19.64
2022-09-09T04:38:45.563Z,19.97
2022-09-09T04:39:47.890Z,20.71
2022-09-09T04:40:52.608Z,19.41
2022-09-09T04:41:54.860Z,19.47
2022-09-09T04:43:02.422Z,19.56
2022-09-09T04:44:04.864Z,19.60
2022-09-09T04:45:08.660Z,20.17
2022-09-09T04:46:11.026Z,20.42
2022-09-09T04:47:13.293Z,21.30
2022-09-09T04:48:15.441Z,21.79
2022-09-09T04:49:17.646Z,21.47
2022-09-09T04:50:19.942Z,20.77
2022-09-09T04:51:23.254Z,20.97
2022-09-09T04:52:26.876Z,20.83
2022-09-09T04:53:29.351Z,21.64
2022-09-09T04:54:31.615Z,21.20
2022-09-09T04:55:35.996Z,21.84
2022-09-09T04:56:38.007Z,21.51
2022-09-09T04:57:40.932Z,21.05
2022-09-09T04:58:44.182Z,20.86
2022-09-09T04:59:47.166Z,20.49
2022-09-09T05:00:50.522Z,20.60
2022-09-09T05:01:55.652Z,21.26
2022-09-09T05:02:57.903Z,21.05
2022-09-09T05:04:00.544Z,21.14
2022-09-09T05:05:12.412Z,21.52
2022-09-09T05:06:17.424Z,20.59
2022-09-09T05:07:20.590Z,22.51
2022-09-09T05:08:23.975Z,21.22
2022-09-09T05:09:26.467Z,20.79
2022-09-09T05:10:28.632Z,22.42
2022-09-09T05:11:33.415Z,22.40
2022-09-09T05:12:55.111Z,23.95
2022-09-09T05:13:59.964Z,23.65
2022-09-09T05:15:04.943Z,23.87
2022-09-09T05:16:07.232Z,24.43
2022-09-09T05:17:09.519Z,24.06
2022-09-09T05:18:13.805Z,23.29
2022-09-09T05:19:15.859Z,24.37
2022-09-09T05:20:23.514Z,23.78
2022-09-09T05:21:29.540Z,23.70
2022-09-09T05:22:31.749Z,24.29
2022-09-09T05:23:35.053Z,24.02
2022-09-09T05:24:37.860Z,22.79
2022-09-09T05:25:41.677Z,21.72
2022-09-09T05:26:44.584Z,22.83
2022-09-09T05:27:47.064Z,21.91
2022-09-09T05:28:50.222Z,22.68
2022-09-09T05:29:52.386Z,22.39
2022-09-09T05:31:05.921Z,23.10
2022-09-09T05:32:15.235Z,23.14
2022-09-09T05:33:22.210Z,22.89
2022-09-09T05:34:24.466Z,23.42
2022-09-09T05:35:26.563Z,23.21
2022-09-09T05:36:28.659Z,24.10
2022-09-09T05:37:35.108Z,23.66
2022-09-09T05:38:37.615Z,24.05
2022-09-09T05:39:39.896Z,22.93
2022-09-09T05:41:51.098Z,22.58
2022-09-09T05:42:54.679Z,22.36
2022-09-09T05:43:59.957Z,22.51
2022-09-09T05:45:02.316Z,23.46
2022-09-09T05:46:10.174Z,24.30
2022-09-09T05:47:13.592Z,23.03
2022-09-09T05:48:17.666Z,24.07
2022-09-09T05:49:20.180Z,24.69
2022-09-09T05:50:23.785Z,22.44
2022-09-09T05:51:31.179Z,23.05
2022-09-09T05:52:35.309Z,22.60
2022-09-09T05:53:37.985Z,22.19
2022-09-09T05:54:40.380Z,21.26
2022-09-09T05:55:43.190Z,21.38
2022-09-09T05:56:51.062Z,21.58
2022-09-09T05:57:54.008Z,21.83
2022-09-09T05:58:57.149Z,21.02
2022-09-09T06:00:00.687Z,23.50
2022-09-09T06:01:08.359Z,23.03
2022-09-09T06:02:11.475Z,23.16
2022-09-09T06:03:13.993Z,22.74
2022-09-09T06:04:16.417Z,22.35
2022-09-09T06:05:18.651Z,21.74
2022-09-09T06:06:25.157Z,22.46
2022-09-09T06:07:27.159Z,23.75
2022-09-09T06:08:30.458Z,23.10
2022-09-09T06:09:32.807Z,23.11
2022-09-09T06:10:35.895Z,21.47
2022-09-09T06:11:40.631Z,21.04
2022-09-09T06:12:42.903Z,20.76
2022-09-09T06:13:48.843Z,20.27
2022-09-09T06:14:53.223Z,20.67
2022-09-09T06:15:56.076Z,20.53
2022-09-09T06:16:58.126Z,20.24
2022-09-09T06:18:04.554Z,22.45
2022-09-09T06:19:07.665Z,21.81
2022-09-09T06:20:10.447Z,23.19
2022-09-09T06:21:24.685Z,22.77
2022-09-09T06:22:26.644Z,21.57
2022-09-09T06:23:31.763Z,22.81
2022-09-09T06:24:34.127Z,23.16
2022-09-09T06:25:41.846Z,21.92
2022-09-09T06:26:44.472Z,21.43
2022-09-09T06:27:54.368Z,22.79
2022-09-09T06:28:58.458Z,23.72
2022-09-09T06:30:00.909Z,24.71
2022-09-09T06:31:08.178Z,25.92
2022-09-09T06:32:10.236Z,26.67
2022-09-09T06:33:12.373Z,26.64
2022-09-09T06:34:14.577Z,25.87
2022-09-09T06:35:21.258Z,25.04
2022-09-09T06:36:26.463Z,24.69
2022-09-09T06:37:28.608Z,23.77
2022-09-09T06:38:31.119Z,22.79
2022-09-09T06:39:33.274Z,21.89
2022-09-09T06:40:36.515Z,22.93
2022-09-09T06:41:39.706Z,22.24
2022-09-09T06:42:46.165Z,21.97
2022-09-09T06:44:29.488Z,22.30
2022-09-09T06:45:37.648Z,21.87
2022-09-09T06:46:40.964Z,22.19
2022-09-09T06:47:45.727Z,21.60
2022-09-09T06:48:47.803Z,21.87
2022-09-09T06:49:51.755Z,22.48
2022-09-09T06:51:09.543Z,22.26
2022-09-09T06:52:13.155Z,22.34
2022-09-09T06:53:20.168Z,22.63
2022-09-09T06:54:26.516Z,23.10
2022-09-09T06:55:29.268Z,23.20
2022-09-09T06:56:32.929Z,22.39
2022-09-09T06:57:38.016Z,22.55
2022-09-09T06:59:05.214Z,21.19
2022-09-09T07:00:09.074Z,19.80
2022-09-09T07:01:16.006Z,18.97
2022-09-09T07:02:18.063Z,19.16
2022-09-09T07:03:20.200Z,19.42
2022-09-09T07:04:22.155Z,18.58
2022-09-09T07:05:24.487Z,19.10
2022-09-09T07:06:30.223Z,18.04
2022-09-09T07:07:34.540Z,17.79
2022-09-09T07:08:36.899Z,17.52
2022-09-09T07:09:39.451Z,16.94
2022-09-09T07:10:41.377Z,17.97
2022-09-09T07:11:46.283Z,18.77
2022-09-09T07:12:53.430Z,19.05
2022-09-09T07:14:00.921Z,19.16
2022-09-09T07:15:06.535Z,20.88
2022-09-09T07:16:11.686Z,20.53
2022-09-09T07:17:13.610Z,20.35
2022-09-09T07:18:15.913Z,20.51
2022-09-09T07:19:18.029Z,21.04
2022-09-09T07:20:22.505Z,18.75
2022-09-09T07:21:27.535Z,19.12
2022-09-09T07:22:31.832Z,18.56
2022-09-09T07:23:36.245Z,17.29
2022-09-09T07:24:39.755Z,17.29
2022-09-09T07:25:46.896Z,17.17
2022-09-09T07:26:49.732Z,17.46
2022-09-09T07:27:52.646Z,17.25
2022-09-09T07:28:58.182Z,16.52
2022-09-09T07:30:00.279Z,16.55
2022-09-09T07:31:06.013Z,16.20
2022-09-09T07:32:08.551Z,15.96
2022-09-09T07:33:13.146Z,15.83
2022-09-09T07:34:15.532Z,15.78
2022-09-09T07:35:17.724Z,15.96
2022-09-09T07:36:24.424Z,16.15
2022-09-09T07:37:26.723Z,16.67
2022-09-09T07:38:30.366Z,16.48
2022-09-09T07:39:32.674Z,16.91
2022-09-09T07:40:37.992Z,17.36
2022-09-09T07:41:45.742Z,17.24
2022-09-09T07:42:49.344Z,17.10
2022-09-09T07:43:54.896Z,17.18
2022-09-09T07:44:57.330Z,17.44
2022-09-09T07:46:00.570Z,17.44
2022-09-09T07:47:03.975Z,17.31
2022-09-09T07:48:12.117Z,17.46
2022-09-09T07:49:15.757Z,17.62
2022-09-09T07:50:18.040Z,18.02
2022-09-09T07:51:23.865Z,17.91
2022-09-09T07:52:26.708Z,18.40
2022-09-09T07:53:32.065Z,20.24
2022-09-09T07:54:34.594Z,20.74
2022-09-09T07:55:39.855Z,21.04
2022-09-09T07:56:43.173Z,19.89
2022-09-09T07:57:46.295Z,18.87
2022-09-09T07:58:50.684Z,18.42
2022-09-09T07:59:53.397Z,17.71
2022-09-09T08:00:55.934Z,17.14
2022-09-09T08:01:59.369Z,17.41
2022-09-09T08:03:05.098Z,17.12
2022-09-09T08:04:18.342Z,17.24
2022-09-09T08:05:23.509Z,17.48
2022-09-09T08:06:27.999Z,17.28
2022-09-09T08:07:30.415Z,16.68
2022-09-09T08:08:32.506Z,16.11
2022-09-09T08:09:34.875Z,15.79
2022-09-09T08:10:45.504Z,15.44
2022-09-09T08:11:48.631Z,15.15
2022-09-09T08:13:14.977Z,14.69
2022-09-09T08:14:16.126Z,15.87
2022-09-09T08:15:19.575Z,16.61
2022-09-09T08:16:26.935Z,17.26
2022-09-09T08:17:28.935Z,17.78
2022-09-09T08:18:32.922Z,18.38
2022-09-09T08:19:38.212Z,18.82
2022-09-09T08:20:45.679Z,20.06
2022-09-09T08:21:47.665Z,20.97
2022-09-09T08:22:51.307Z,20.72
2022-09-09T08:23:57.750Z,20.53
2022-09-09T08:25:01.548Z,20.02
2022-09-09T08:26:11.811Z,18.94
2022-09-09T08:27:14.033Z,17.40
2022-09-09T08:28:16.226Z,17.14
2022-09-09T08:29:19.329Z,16.74
2022-09-09T08:30:22.482Z,16.77
2022-09-09T08:31:29.279Z,16.83
2022-09-09T08:32:31.447Z,16.29
2022-09-09T08:33:34.748Z,15.67
2022-09-09T08:34:41.192Z,15.64
2022-09-09T08:35:54.015Z,15.12
2022-09-09T08:36:56.848Z,15.20
2022-09-09T08:38:08.930Z,15.12
2022-09-09T08:39:18.780Z,15.13
2022-09-09T08:40:31.149Z,15.65
2022-09-09T08:42:01.809Z,16.06
2022-09-09T08:43:09.814Z,16.48
2022-09-09T08:44:24.470Z,16.75
2022-09-09T08:45:39.643Z,16.90
2022-09-09T08:46:48.117Z,17.36
2022-09-09T08:48:26.861Z,18.15
2022-09-09T08:49:41.691Z,18.95
2022-09-09T08:50:49.701Z,19.49
2022-09-09T08:51:57.369Z,20.47
2022-09-09T08:53:23.728Z,19.31
2022-09-09T08:54:51.289Z,20.20
2022-09-09T08:55:59.927Z,18.73
2022-09-09T08:57:27.826Z,18.45
2022-09-09T08:58:41.769Z,18.20
2022-09-09T08:59:43.894Z,18.03
2022-09-09T09:01:09.429Z,17.56
2022-09-09T09:02:31.428Z,16.78
2022-09-09T09:03:48.684Z,17.12
2022-09-09T09:05:16.572Z,16.14
2022-09-09T09:06:39.746Z,16.34
2022-09-09T09:08:13.698Z,15.92
2022-09-09T09:09:38.031Z,16.18
2022-09-09T09:10:51.856Z,16.48
2022-09-09T09:12:01.940Z,16.02
2022-09-09T09:13:32.543Z,16.14
2022-09-09T09:14:38.860Z,16.39
2022-09-09T09:15:48.125Z,16.01
2022-09-09T09:16:57.384Z,16.48
2022-09-09T09:17:59.697Z,17.32
2022-09-09T09:19:02.557Z,17.49
2022-09-09T09:20:14.718Z,17.14
2022-09-09T09:21:31.156Z,16.83
2022-09-09T09:22:50.206Z,16.30
2022-09-09T09:24:19.745Z,16.30
2022-09-09T09:25:32.749Z,16.16
2022-09-09T09:26:36.669Z,16.70
2022-09-09T09:28:06.813Z,16.38
2022-09-09T09:29:20.119Z,16.58
2022-09-09T09:30:30.270Z,16.81
2022-09-09T09:31:37.344Z,16.89
2022-09-09T09:32:44.344Z,16.66
2022-09-09T09:33:50.677Z,16.46
2022-09-09T09:34:59.265Z,16.82
2022-09-09T09:36:04.860Z,16.13
2022-09-09T09:37:20.658Z,16.26
2022-09-09T09:40:05.087Z,16.36
2022-09-09T09:41:07.766Z,16.02
2022-09-09T09:42:20.401Z,16.06
2022-09-09T09:43:30.530Z,16.31
2022-09-09T09:44:38.347Z,16.42
2022-09-09T09:46:13.964Z,16.09
2022-09-09T09:47:21.494Z,15.83
2022-09-09T09:48:31.620Z,15.74
2022-09-09T09:49:33.921Z,16.00
2022-09-09T09:50:49.511Z,15.63
2022-09-09T09:51:53.756Z,15.61
2022-09-09T09:53:03.635Z,15.83
2022-09-09T09:54:18.178Z,15.94
2022-09-09T09:55:25.331Z,15.87
2022-09-09T09:56:33.680Z,16.22
2022-09-09T09:57:39.684Z,16.24
2022-09-09T09:58:45.645Z,16.21
2022-09-09T09:59:49.101Z,15.91
2022-09-09T10:00:57.526Z,15.75
2022-09-09T10:02:14.323Z,15.76
2022-09-09T10:03:24.286Z,15.84
2022-09-09T10:04:27.852Z,15.77
2022-09-09T10:05:36.957Z,15.86
2022-09-09T10:06:44.881Z,15.39
2022-09-09T10:08:03.205Z,15.39
2022-09-09T10:09:25.415Z,15.22
2022-09-09T10:10:48.377Z,15.53
2022-09-09T10:12:20.221Z,15.37
2022-09-09T10:13:29.108Z,15.29
2022-09-09T10:14:51.427Z,15.72
2022-09-09T10:16:36.394Z,15.76
2022-09-09T10:18:05.533Z,15.77
2022-09-09T10:19:13.894Z,15.95
2022-09-09T10:20:30.502Z,16.18
2022-09-09T10:22:19.080Z,16.59
2022-09-09T10:23:46.997Z,16.44
2022-09-09T10:25:00.464Z,16.69
2022-09-09T10:26:22.189Z,16.68
2022-09-09T10:27:30.695Z,17.01
2022-09-09T10:29:12.499Z,16.74
2022-09-09T10:30:19.103Z,16.44
2022-09-09T10:31:32.140Z,16.00
2022-09-09T10:32:59.141Z,16.38
2022-09-09T10:34:33.262Z,15.99
2022-09-09T10:35:42.015Z,15.80
2022-09-09T10:36:50.340Z,15.67
2022-09-09T10:38:12.031Z,16.03
2022-09-09T10:39:20.012Z,16.24
2022-09-09T10:40:39.578Z,15.74
2022-09-09T10:42:05.601Z,15.59
2022-09-09T10:43:27.593Z,15.36
2022-09-09T10:45:12.490Z,15.71
2022-09-09T10:46:14.502Z,15.84
2022-09-09T10:47:31.897Z,15.89
2022-09-09T10:48:56.863Z,15.99
2022-09-09T10:52:26.115Z,15.53
2022-09-09T10:53:37.614Z,15.70
2022-09-09T10:54:45.765Z,15.72
2022-09-09T10:55:59.003Z,15.83
2022-09-09T10:57:37.727Z,15.57
2022-09-09T10:58:44.173Z,15.63
2022-09-09T10:59:52.201Z,15.75
2022-09-09T11:01:05.265Z,15.69
2022-09-09T11:02:20.677Z,15.87
2022-09-09T11:03:34.211Z,15.88
2022-09-09T11:04:57.783Z,16.06
2022-09-09T11:06:07.766Z,15.72
2022-09-09T11:07:22.290Z,15.89
2022-09-09T11:08:53.786Z,16.16
2022-09-09T11:10:07.655Z,16.00
2022-09-09T11:11:36.407Z,15.94
2022-09-09T11:12:41.259Z,16.05
2022-09-09T11:14:04.199Z,16.13
2022-09-09T11:15:29.723Z,16.08
2022-09-09T11:16:47.372Z,16.10
2022-09-09T11:17:59.811Z,16.03
2022-09-09T11:19:15.953Z,15.78
2022-09-09T11:20:18.325Z,15.65
2022-09-09T11:21:26.976Z,15.66
2022-09-09T11:22:46.300Z,15.79
2022-09-09T11:23:57.318Z,15.86
2022-09-09T11:25:11.583Z,15.52
2022-09-09T11:26:30.346Z,15.46
2022-09-09T11:28:04.290Z,15.35
2022-09-09T11:29:49.775Z,14.90
2022-09-09T11:31:10.810Z,14.68
2022-09-09T11:32:43.383Z,14.41
2022-09-09T11:33:58.568Z,14.68
2022-09-09T11:35:14.886Z,14.79
2022-09-09T11:36:41.509Z,14.91
2022-09-09T11:38:17.076Z,14.73
2022-09-09T11:39:50.361Z,14.83
2022-09-09T11:41:07.822Z,14.67
2022-09-09T11:42:15.762Z,14.91
2022-09-09T11:43:43.104Z,15.02
2022-09-09T11:44:45.510Z,15.05
2022-09-09T11:46:00.217Z,15.18
2022-09-09T11:47:03.364Z,15.13
2022-09-09T11:48:29.911Z,15.17
2022-09-09T11:49:46.708Z,15.21
2022-09-09T11:50:59.738Z,15.16
2022-09-09T11:52:39.772Z,15.30
2022-09-09T11:53:55.302Z,15.29
2022-09-09T11:54:57.707Z,15.32
2022-09-09T11:56:14.685Z,15.59
2022-09-09T11:57:35.881Z,15.64
2022-09-09T11:58:55.601Z,15.81
2022-09-09T12:00:00.128Z,15.63
2022-09-09T12:01:02.571Z,15.48
2022-09-09T12:02:16.055Z,15.69
2022-09-09T12:03:51.426Z,15.51
2022-09-09T12:05:10.039Z,15.34
2022-09-09T12:06:18.091Z,15.41
2022-09-09T12:07:41.539Z,15.54
2022-09-09T12:08:47.350Z,15.44
2022-09-09T12:09:55.339Z,15.37
2022-09-09T12:11:04.433Z,15.63
2022-09-09T12:12:12.456Z,15.63
2022-09-09T12:13:24.034Z,15.39
2022-09-09T12:14:38.928Z,15.34
2022-09-09T12:15:50.883Z,15.57
2022-09-09T12:16:53.873Z,15.59
2022-09-09T12:18:03.355Z,15.76
2022-09-09T12:19:22.058Z,15.95
2022-09-09T12:20:39.985Z,15.74
2022-09-09T12:22:20.762Z,15.65
2022-09-09T12:23:40.797Z,15.62
2022-09-09T12:24:56.610Z,15.29
2022-09-09T12:26:06.024Z,15.29
2022-09-09T12:27:21.979Z,15.21
2022-09-09T12:28:32.065Z,15.05
2022-09-09T12:30:04.125Z,14.99
2022-09-09T12:31:19.257Z,14.87
2022-09-09T12:32:26.555Z,14.84
2022-09-09T12:33:44.085Z,15.16
2022-09-09T12:34:54.655Z,15.33
2022-09-09T12:35:59.396Z,15.50
2022-09-09T12:37:26.357Z,15.45
2022-09-09T12:38:40.356Z,15.45
2022-09-09T12:40:05.668Z,15.52
2022-09-09T12:41:20.619Z,15.63
2022-09-09T12:42:23.872Z,15.72
2022-09-09T12:43:28.432Z,15.65
2022-09-09T12:44:33.585Z,15.34
2022-09-09T12:45:37.157Z,15.34
2022-09-09T12:46:47.712Z,15.59
2022-09-09T12:48:04.704Z,15.43
2022-09-09T12:49:07.629Z,15.44
2022-09-09T12:50:33.304Z,15.45
2022-09-09T12:51:35.740Z,15.49
2022-09-09T12:52:40.077Z,15.33
2022-09-09T12:53:42.207Z,15.45
2022-09-09T12:54:51.734Z,15.53
2022-09-09T12:56:21.057Z,15.50
2022-09-09T12:57:26.677Z,15.47
2022-09-09T12:58:33.866Z,15.60
2022-09-09T12:59:46.375Z,15.69
2022-09-09T13:00:57.601Z,15.72
2022-09-09T13:02:01.453Z,15.76
2022-09-09T13:03:18.113Z,15.82
2022-09-09T13:04:26.069Z,15.87
2022-09-09T13:05:40.094Z,15.77
2022-09-09T13:06:42.054Z,15.76
2022-09-09T13:07:44.408Z,15.74
2022-09-09T13:08:48.966Z,15.71
2022-09-09T13:09:51.134Z,15.62
2022-09-09T13:11:03.824Z,15.73
2022-09-09T13:12:10.730Z,15.37
2022-09-09T13:13:18.548Z,15.27
2022-09-09T13:14:38.467Z,15.40
2022-09-09T13:15:41.709Z,15.41
2022-09-09T13:16:43.755Z,15.45
2022-09-09T13:17:52.405Z,15.53
2022-09-09T13:18:54.674Z,15.57
2022-09-09T13:19:58.180Z,15.48
2022-09-09T13:21:01.301Z,15.31
2022-09-09T13:22:20.722Z,15.26
2022-09-09T13:23:23.318Z,15.28
2022-09-09T13:24:31.248Z,15.28
2022-09-09T13:25:37.890Z,15.30
2022-09-09T13:26:43.234Z,15.48
2022-09-09T13:27:56.398Z,15.34
2022-09-09T13:29:18.947Z,15.51
2022-09-09T13:30:33.439Z,15.29
2022-09-09T13:31:38.391Z,15.43
2022-09-09T13:32:40.712Z,15.31
2022-09-09T13:33:44.213Z,15.18
2022-09-09T13:34:57.903Z,15.25
2022-09-09T13:36:05.337Z,15.13
2022-09-09T13:37:24.510Z,14.88
2022-09-09T13:38:27.602Z,14.75
2022-09-09T13:39:30.723Z,14.78
2022-09-09T13:40:35.362Z,14.84
2022-09-09T13:41:43.244Z,14.71
2022-09-09T13:42:45.930Z,14.64
2022-09-09T13:43:49.396Z,14.63
2022-09-09T13:44:51.328Z,14.77
2022-09-09T13:46:05.827Z,14.73
2022-09-09T13:47:20.935Z,14.68
2022-09-09T13:48:26.186Z,14.68
2022-09-09T13:49:30.429Z,14.66
2022-09-09T13:50:32.705Z,14.61
2022-09-09T13:51:38.822Z,14.41
2022-09-09T13:52:41.308Z,14.33
2022-09-09T13:53:43.241Z,14.37
2022-09-09T13:54:50.462Z,14.33
2022-09-09T13:55:53.471Z,14.18
2022-09-09T13:56:56.471Z,14.18
2022-09-09T13:58:02.346Z,14.30
2022-09-09T13:59:06.887Z,14.29
2022-09-09T14:00:13.678Z,14.26
2022-09-09T14:01:16.149Z,14.17
2022-09-09T14:02:18.191Z,14.23
2022-09-09T14:03:21.389Z,14.23
2022-09-09T14:04:23.350Z,14.14
2022-09-09T14:05:26.265Z,14.10
2022-09-09T14:06:28.621Z,14.19
2022-09-09T14:07:31.666Z,14.08
2022-09-09T14:08:38.520Z,14.13
2022-09-09T14:09:41.478Z,14.12
2022-09-09T14:10:43.367Z,14.05
2022-09-09T14:11:47.284Z,13.97
2022-09-09T14:12:49.223Z,13.93
2022-09-09T14:13:52.237Z,13.86
2022-09-09T14:14:55.490Z,13.88
2022-09-09T14:15:57.738Z,13.91
2022-09-09T14:17:01.503Z,13.92
2022-09-09T14:18:06.938Z,13.88
2022-09-09T14:19:10.592Z,13.92
2022-09-09T14:20:14.410Z,13.94
2022-09-09T14:21:16.787Z,13.85
2022-09-09T14:22:19.867Z,13.93
2022-09-09T14:23:23.162Z,13.83
2022-09-09T14:24:26.339Z,13.92
2022-09-09T14:25:28.766Z,13.80
2022-09-09T14:26:31.303Z,13.76
2022-09-09T14:27:33.810Z,13.85
2022-09-09T14:28:54.319Z,13.79
2022-09-09T14:29:58.870Z,13.71
2022-09-09T14:31:04.857Z,13.63
2022-09-09T14:32:11.957Z,13.57
2022-09-09T14:33:19.481Z,13.64
2022-09-09T14:34:21.899Z,13.52
2022-09-09T14:35:25.820Z,13.52
2022-09-09T14:36:28.080Z,13.58
2022-09-09T14:37:32.211Z,13.58
2022-09-09T14:38:39.884Z,13.55
2022-09-09T14:39:42.087Z,13.58
2022-09-09T14:40:47.990Z,13.55
2022-09-09T14:41:50.028Z,13.49
2022-09-09T14:42:55.138Z,13.51
2022-09-09T14:43:58.463Z,13.48
2022-09-09T14:45:00.495Z,13.51
2022-09-09T14:46:07.610Z,13.50
2022-09-09T14:47:10.072Z,13.42
2022-09-09T14:48:12.142Z,13.42
2022-09-09T14:49:14.147Z,13.41
2022-09-09T14:50:16.712Z,13.40
2022-09-09T14:51:25.820Z,13.37
2022-09-09T14:52:27.908Z,13.38
2022-09-09T14:53:30.607Z,13.38
2022-09-09T14:54:33.536Z,13.40
2022-09-09T14:55:36.021Z,13.41
2022-09-09T14:56:38.798Z,13.40
2022-09-09T14:57:41.469Z,13.40
2022-09-09T14:58:44.978Z,13.34
2022-09-09T14:59:46.967Z,13.33
2022-09-09T15:00:49.021Z,13.36
2022-09-09T15:01:51.031Z,13.34
2022-09-09T15:02:54.643Z,13.40
2022-09-09T15:03:59.258Z,13.33
2022-09-09T15:05:02.567Z,13.33
2022-09-09T15:06:15.664Z,13.27
2022-09-09T15:07:20.593Z,13.27
2022-09-09T15:08:23.570Z,13.27
2022-09-09T15:09:27.179Z,13.23
2022-09-09T15:10:29.156Z,13.20
2022-09-09T15:11:39.047Z,13.17